sensor_id;sensor_type;location;lat;lon;timestamp;P1;durP1;ratioP1;P2;durP2;ratioP2
40599;SDS011;26309;50.924;4.754;2024-02-28T00:01:17;51.47;;;28.83;;
40599;SDS011;26309;50.924;4.754;2024-02-28T00:03:43;54.47;;;30.47;;
40599;SDS011;26309;50.924;4.754;2024-02-28T00:06:09;50.13;;;30.83;;
40599;SDS011;26309;50.924;4.754;2024-02-28T00:08:35;55.30;;;30.80;;
40599;SDS011;26309;50.924;4.754;2024-02-28T00:11:01;55.80;;;30.80;;
40599;SDS011;26309;50.924;4.754;2024-02-28T00:13:27;55.57;;;30.20;;
40599;SDS011;26309;50.924;4.754;2024-02-28T00:15:53;53.77;;;28.70;;
40599;SDS011;26309;50.924;4.754;2024-02-28T00:18:18;50.53;;;29.40;;
40599;SDS011;26309;50.924;4.754;2024-02-28T00:20:44;52.50;;;28.83;;
40599;SDS011;26309;50.924;4.754;2024-02-28T00:23:10;43.63;;;28.17;;
40599;SDS011;26309;50.924;4.754;2024-02-28T00:25:36;47.07;;;27.77;;
40599;SDS011;26309;50.924;4.754;2024-02-28T00:28:02;45.70;;;26.07;;
40599;SDS011;26309;50.924;4.754;2024-02-28T00:30:28;50.00;;;27.40;;
40599;SDS011;26309;50.924;4.754;2024-02-28T00:32:54;46.73;;;27.60;;
40599;SDS011;26309;50.924;4.754;2024-02-28T00:35:20;44.47;;;26.33;;
40599;SDS011;26309;50.924;4.754;2024-02-28T00:37:45;41.87;;;25.40;;
40599;SDS011;26309;50.924;4.754;2024-02-28T00:40:11;46.47;;;26.40;;
40599;SDS011;26309;50.924;4.754;2024-02-28T00:42:37;44.70;;;26.73;;
40599;SDS011;26309;50.924;4.754;2024-02-28T00:45:04;43.57;;;25.77;;
40599;SDS011;26309;50.924;4.754;2024-02-28T00:47:30;44.43;;;26.17;;
40599;SDS011;26309;50.924;4.754;2024-02-28T00:49:57;42.77;;;26.87;;
40599;SDS011;26309;50.924;4.754;2024-02-28T00:52:23;51.97;;;27.87;;
40599;SDS011;26309;50.924;4.754;2024-02-28T00:54:50;43.43;;;26.80;;
40599;SDS011;26309;50.924;4.754;2024-02-28T00:57:16;54.37;;;30.33;;
40599;SDS011;26309;50.924;4.754;2024-02-28T00:59:41;56.90;;;31.03;;
40599;SDS011;26309;50.924;4.754;2024-02-28T01:02:10;53.00;;;30.83;;
40599;SDS011;26309;50.924;4.754;2024-02-28T01:04:36;57.53;;;31.83;;
40599;SDS011;26309;50.924;4.754;2024-02-28T01:07:02;55.00;;;30.00;;
40599;SDS011;26309;50.924;4.754;2024-02-28T01:09:28;51.60;;;29.93;;
40599;SDS011;26309;50.924;4.754;2024-02-28T01:11:54;50.23;;;29.30;;
40599;SDS011;26309;50.924;4.754;2024-02-28T01:14:20;58.03;;;31.07;;
40599;SDS011;26309;50.924;4.754;2024-02-28T01:16:45;61.50;;;31.47;;
40599;SDS011;26309;50.924;4.754;2024-02-28T01:19:11;54.43;;;30.77;;
40599;SDS011;26309;50.924;4.754;2024-02-28T01:21:38;53.43;;;29.00;;
40599;SDS011;26309;50.924;4.754;2024-02-28T01:24:04;58.03;;;30.30;;
40599;SDS011;26309;50.924;4.754;2024-02-28T01:26:30;52.30;;;28.53;;
40599;SDS011;26309;50.924;4.754;2024-02-28T01:28:56;54.07;;;29.67;;
40599;SDS011;26309;50.924;4.754;2024-02-28T01:31:22;58.03;;;30.87;;
40599;SDS011;26309;50.924;4.754;2024-02-28T01:33:48;48.93;;;29.10;;
40599;SDS011;26309;50.924;4.754;2024-02-28T01:36:14;50.27;;;27.77;;
40599;SDS011;26309;50.924;4.754;2024-02-28T01:38:40;46.47;;;26.57;;
40599;SDS011;26309;50.924;4.754;2024-02-28T01:41:05;46.93;;;26.63;;
40599;SDS011;26309;50.924;4.754;2024-02-28T01:43:31;58.10;;;29.43;;
40599;SDS011;26309;50.924;4.754;2024-02-28T01:46:01;42.77;;;25.77;;
40599;SDS011;26309;50.924;4.754;2024-02-28T01:48:31;48.23;;;25.30;;
40599;SDS011;26309;50.924;4.754;2024-02-28T01:50:58;46.10;;;25.87;;
40599;SDS011;26309;50.924;4.754;2024-02-28T01:53:23;47.00;;;26.87;;
40599;SDS011;26309;50.924;4.754;2024-02-28T01:55:49;43.80;;;26.10;;
40599;SDS011;26309;50.924;4.754;2024-02-28T01:58:17;42.47;;;24.37;;
40599;SDS011;26309;50.924;4.754;2024-02-28T02:00:43;45.10;;;25.87;;
40599;SDS011;26309;50.924;4.754;2024-02-28T02:03:11;43.10;;;24.83;;
40599;SDS011;26309;50.924;4.754;2024-02-28T02:05:37;46.37;;;26.07;;
40599;SDS011;26309;50.924;4.754;2024-02-28T02:08:03;52.43;;;26.47;;
40599;SDS011;26309;50.924;4.754;2024-02-28T02:10:30;46.60;;;26.30;;
40599;SDS011;26309;50.924;4.754;2024-02-28T02:13:03;45.13;;;26.53;;
40599;SDS011;26309;50.924;4.754;2024-02-28T02:15:30;49.63;;;27.77;;
40599;SDS011;26309;50.924;4.754;2024-02-28T02:17:56;52.37;;;27.57;;
40599;SDS011;26309;50.924;4.754;2024-02-28T02:20:22;44.53;;;25.47;;
40599;SDS011;26309;50.924;4.754;2024-02-28T02:22:49;46.00;;;25.33;;
40599;SDS011;26309;50.924;4.754;2024-02-28T02:25:15;45.97;;;25.87;;
40599;SDS011;26309;50.924;4.754;2024-02-28T02:27:41;46.30;;;24.57;;
40599;SDS011;26309;50.924;4.754;2024-02-28T02:30:07;52.17;;;26.97;;
40599;SDS011;26309;50.924;4.754;2024-02-28T02:32:33;44.97;;;26.13;;
40599;SDS011;26309;50.924;4.754;2024-02-28T02:34:58;47.83;;;26.53;;
40599;SDS011;26309;50.924;4.754;2024-02-28T02:37:24;49.33;;;26.50;;
40599;SDS011;26309;50.924;4.754;2024-02-28T02:39:51;48.37;;;27.50;;
40599;SDS011;26309;50.924;4.754;2024-02-28T02:42:17;50.17;;;27.70;;
40599;SDS011;26309;50.924;4.754;2024-02-28T02:44:43;56.03;;;29.30;;
40599;SDS011;26309;50.924;4.754;2024-02-28T02:47:09;51.37;;;27.67;;
40599;SDS011;26309;50.924;4.754;2024-02-28T02:49:34;50.27;;;28.67;;
40599;SDS011;26309;50.924;4.754;2024-02-28T02:52:00;49.00;;;26.37;;
40599;SDS011;26309;50.924;4.754;2024-02-28T02:54:26;46.83;;;26.60;;
40599;SDS011;26309;50.924;4.754;2024-02-28T02:56:52;45.10;;;25.03;;
40599;SDS011;26309;50.924;4.754;2024-02-28T02:59:18;41.23;;;24.00;;
40599;SDS011;26309;50.924;4.754;2024-02-28T03:01:46;54.40;;;25.80;;
40599;SDS011;26309;50.924;4.754;2024-02-28T03:04:14;48.33;;;26.73;;
40599;SDS011;26309;50.924;4.754;2024-02-28T03:06:40;51.10;;;27.47;;
40599;SDS011;26309;50.924;4.754;2024-02-28T03:09:06;45.60;;;25.57;;
40599;SDS011;26309;50.924;4.754;2024-02-28T03:11:33;47.83;;;25.97;;
40599;SDS011;26309;50.924;4.754;2024-02-28T03:14:00;45.87;;;27.43;;
40599;SDS011;26309;50.924;4.754;2024-02-28T03:16:26;49.47;;;27.27;;
40599;SDS011;26309;50.924;4.754;2024-02-28T03:18:52;52.10;;;27.40;;
40599;SDS011;26309;50.924;4.754;2024-02-28T03:21:19;51.17;;;26.23;;
40599;SDS011;26309;50.924;4.754;2024-02-28T03:23:46;50.43;;;27.90;;
40599;SDS011;26309;50.924;4.754;2024-02-28T03:26:12;52.60;;;27.00;;
40599;SDS011;26309;50.924;4.754;2024-02-28T03:28:37;49.73;;;27.37;;
40599;SDS011;26309;50.924;4.754;2024-02-28T03:31:03;46.87;;;25.50;;
40599;SDS011;26309;50.924;4.754;2024-02-28T03:33:29;44.67;;;26.20;;
40599;SDS011;26309;50.924;4.754;2024-02-28T03:35:58;47.87;;;26.47;;
40599;SDS011;26309;50.924;4.754;2024-02-28T03:38:23;48.80;;;27.27;;
40599;SDS011;26309;50.924;4.754;2024-02-28T03:40:50;50.83;;;26.63;;
40599;SDS011;26309;50.924;4.754;2024-02-28T03:43:16;50.07;;;26.67;;
40599;SDS011;26309;50.924;4.754;2024-02-28T03:45:42;51.80;;;29.07;;
40599;SDS011;26309;50.924;4.754;2024-02-28T03:48:08;53.03;;;27.47;;
40599;SDS011;26309;50.924;4.754;2024-02-28T03:50:33;50.97;;;27.60;;
40599;SDS011;26309;50.924;4.754;2024-02-28T03:52:59;54.03;;;26.53;;
40599;SDS011;26309;50.924;4.754;2024-02-28T03:55:25;54.67;;;27.73;;
40599;SDS011;26309;50.924;4.754;2024-02-28T03:57:51;54.93;;;27.13;;
40599;SDS011;26309;50.924;4.754;2024-02-28T04:00:17;46.07;;;26.57;;
40599;SDS011;26309;50.924;4.754;2024-02-28T04:02:43;56.40;;;27.97;;
40599;SDS011;26309;50.924;4.754;2024-02-28T04:05:09;51.03;;;27.93;;
40599;SDS011;26309;50.924;4.754;2024-02-28T04:07:34;58.27;;;28.90;;
40599;SDS011;26309;50.924;4.754;2024-02-28T04:10:00;72.63;;;37.43;;
40599;SDS011;26309;50.924;4.754;2024-02-28T04:12:26;51.63;;;28.07;;
40599;SDS011;26309;50.924;4.754;2024-02-28T04:14:52;61.87;;;32.87;;
40599;SDS011;26309;50.924;4.754;2024-02-28T04:17:18;56.97;;;31.27;;
40599;SDS011;26309;50.924;4.754;2024-02-28T04:19:44;55.23;;;29.47;;
40599;SDS011;26309;50.924;4.754;2024-02-28T04:22:09;56.53;;;29.17;;
40599;SDS011;26309;50.924;4.754;2024-02-28T04:24:35;57.40;;;29.17;;
40599;SDS011;26309;50.924;4.754;2024-02-28T04:27:01;54.57;;;28.80;;
40599;SDS011;26309;50.924;4.754;2024-02-28T04:29:30;59.43;;;28.67;;
40599;SDS011;26309;50.924;4.754;2024-02-28T04:31:56;53.17;;;26.77;;
40599;SDS011;26309;50.924;4.754;2024-02-28T04:34:21;53.27;;;29.80;;
40599;SDS011;26309;50.924;4.754;2024-02-28T04:36:47;48.03;;;28.57;;
40599;SDS011;26309;50.924;4.754;2024-02-28T04:39:13;56.83;;;29.13;;
40599;SDS011;26309;50.924;4.754;2024-02-28T04:41:39;55.90;;;28.00;;
40599;SDS011;26309;50.924;4.754;2024-02-28T04:44:05;52.07;;;28.40;;
40599;SDS011;26309;50.924;4.754;2024-02-28T04:46:30;57.90;;;30.00;;
40599;SDS011;26309;50.924;4.754;2024-02-28T04:48:56;57.60;;;29.43;;
40599;SDS011;26309;50.924;4.754;2024-02-28T04:51:22;58.50;;;30.70;;
40599;SDS011;26309;50.924;4.754;2024-02-28T04:53:48;54.80;;;29.57;;
40599;SDS011;26309;50.924;4.754;2024-02-28T04:56:13;60.50;;;30.10;;
40599;SDS011;26309;50.924;4.754;2024-02-28T04:58:39;61.33;;;30.57;;
40599;SDS011;26309;50.924;4.754;2024-02-28T05:01:05;60.47;;;29.70;;
40599;SDS011;26309;50.924;4.754;2024-02-28T05:03:31;59.93;;;30.13;;
40599;SDS011;26309;50.924;4.754;2024-02-28T05:05:57;64.90;;;31.00;;
40599;SDS011;26309;50.924;4.754;2024-02-28T05:08:22;61.47;;;30.60;;
40599;SDS011;26309;50.924;4.754;2024-02-28T05:10:49;58.93;;;29.90;;
40599;SDS011;26309;50.924;4.754;2024-02-28T05:13:15;60.30;;;29.47;;
40599;SDS011;26309;50.924;4.754;2024-02-28T05:15:41;60.53;;;29.10;;
40599;SDS011;26309;50.924;4.754;2024-02-28T05:18:07;55.90;;;28.70;;
40599;SDS011;26309;50.924;4.754;2024-02-28T05:20:33;57.80;;;31.10;;
40599;SDS011;26309;50.924;4.754;2024-02-28T05:22:59;56.53;;;29.30;;
40599;SDS011;26309;50.924;4.754;2024-02-28T05:25:24;54.40;;;29.40;;
40599;SDS011;26309;50.924;4.754;2024-02-28T05:27:50;58.30;;;28.70;;
40599;SDS011;26309;50.924;4.754;2024-02-28T05:30:16;56.40;;;29.83;;
40599;SDS011;26309;50.924;4.754;2024-02-28T05:32:42;55.70;;;29.33;;
40599;SDS011;26309;50.924;4.754;2024-02-28T05:35:08;61.30;;;30.53;;
40599;SDS011;26309;50.924;4.754;2024-02-28T05:37:36;59.60;;;29.83;;
40599;SDS011;26309;50.924;4.754;2024-02-28T05:40:02;61.43;;;31.10;;
40599;SDS011;26309;50.924;4.754;2024-02-28T05:42:28;59.47;;;30.60;;
40599;SDS011;26309;50.924;4.754;2024-02-28T05:44:56;57.40;;;30.33;;
40599;SDS011;26309;50.924;4.754;2024-02-28T05:47:22;65.17;;;30.23;;
40599;SDS011;26309;50.924;4.754;2024-02-28T05:49:48;59.20;;;29.80;;
40599;SDS011;26309;50.924;4.754;2024-02-28T05:52:14;62.53;;;30.60;;
40599;SDS011;26309;50.924;4.754;2024-02-28T05:54:40;58.23;;;31.53;;
40599;SDS011;26309;50.924;4.754;2024-02-28T05:57:06;56.23;;;30.37;;
40599;SDS011;26309;50.924;4.754;2024-02-28T05:59:31;55.23;;;30.17;;
40599;SDS011;26309;50.924;4.754;2024-02-28T06:01:57;59.53;;;31.27;;
40599;SDS011;26309;50.924;4.754;2024-02-28T06:04:23;69.60;;;31.30;;
40599;SDS011;26309;50.924;4.754;2024-02-28T06:06:49;58.67;;;30.20;;
40599;SDS011;26309;50.924;4.754;2024-02-28T06:09:15;59.43;;;29.60;;
40599;SDS011;26309;50.924;4.754;2024-02-28T06:11:41;58.53;;;29.60;;
40599;SDS011;26309;50.924;4.754;2024-02-28T06:14:07;51.33;;;28.67;;
40599;SDS011;26309;50.924;4.754;2024-02-28T06:16:34;52.63;;;29.83;;
40599;SDS011;26309;50.924;4.754;2024-02-28T06:18:59;61.43;;;30.80;;
40599;SDS011;26309;50.924;4.754;2024-02-28T06:21:25;52.47;;;30.10;;
40599;SDS011;26309;50.924;4.754;2024-02-28T06:23:51;60.93;;;30.67;;
40599;SDS011;26309;50.924;4.754;2024-02-28T06:26:17;64.30;;;32.43;;
40599;SDS011;26309;50.924;4.754;2024-02-28T06:28:44;58.37;;;31.80;;
40599;SDS011;26309;50.924;4.754;2024-02-28T06:31:16;57.77;;;32.07;;
40599;SDS011;26309;50.924;4.754;2024-02-28T06:33:43;63.13;;;34.07;;
40599;SDS011;26309;50.924;4.754;2024-02-28T06:36:09;66.50;;;33.13;;
40599;SDS011;26309;50.924;4.754;2024-02-28T06:38:35;64.40;;;34.17;;
40599;SDS011;26309;50.924;4.754;2024-02-28T06:41:04;62.13;;;33.33;;
40599;SDS011;26309;50.924;4.754;2024-02-28T06:43:32;63.83;;;35.10;;
40599;SDS011;26309;50.924;4.754;2024-02-28T06:45:59;74.63;;;35.23;;
40599;SDS011;26309;50.924;4.754;2024-02-28T06:48:24;68.17;;;34.50;;
40599;SDS011;26309;50.924;4.754;2024-02-28T06:50:50;62.93;;;32.67;;
40599;SDS011;26309;50.924;4.754;2024-02-28T06:53:17;67.90;;;34.97;;
40599;SDS011;26309;50.924;4.754;2024-02-28T06:55:44;66.57;;;35.57;;
40599;SDS011;26309;50.924;4.754;2024-02-28T06:58:11;74.40;;;36.33;;
40599;SDS011;26309;50.924;4.754;2024-02-28T07:00:37;67.57;;;35.27;;
40599;SDS011;26309;50.924;4.754;2024-02-28T07:03:02;71.37;;;35.53;;
40599;SDS011;26309;50.924;4.754;2024-02-28T07:05:29;71.00;;;37.00;;
40599;SDS011;26309;50.924;4.754;2024-02-28T07:07:55;70.30;;;34.63;;
40599;SDS011;26309;50.924;4.754;2024-02-28T07:10:21;69.00;;;35.23;;
40599;SDS011;26309;50.924;4.754;2024-02-28T07:12:47;69.87;;;35.40;;
40599;SDS011;26309;50.924;4.754;2024-02-28T07:15:13;69.87;;;34.50;;
40599;SDS011;26309;50.924;4.754;2024-02-28T07:17:39;60.87;;;33.60;;
40599;SDS011;26309;50.924;4.754;2024-02-28T07:20:05;74.60;;;36.53;;
40599;SDS011;26309;50.924;4.754;2024-02-28T07:22:32;72.67;;;38.90;;
40599;SDS011;26309;50.924;4.754;2024-02-28T07:24:57;75.23;;;39.30;;
40599;SDS011;26309;50.924;4.754;2024-02-28T07:27:23;72.90;;;38.57;;
40599;SDS011;26309;50.924;4.754;2024-02-28T07:29:49;71.00;;;36.13;;
40599;SDS011;26309;50.924;4.754;2024-02-28T07:32:15;73.93;;;38.07;;
40599;SDS011;26309;50.924;4.754;2024-02-28T07:34:41;74.77;;;38.00;;
40599;SDS011;26309;50.924;4.754;2024-02-28T07:37:07;62.87;;;34.00;;
40599;SDS011;26309;50.924;4.754;2024-02-28T07:39:33;74.07;;;36.03;;
40599;SDS011;26309;50.924;4.754;2024-02-28T07:41:59;62.50;;;34.93;;
40599;SDS011;26309;50.924;4.754;2024-02-28T07:44:25;60.27;;;34.73;;
40599;SDS011;26309;50.924;4.754;2024-02-28T07:46:51;65.73;;;33.77;;
40599;SDS011;26309;50.924;4.754;2024-02-28T07:49:17;59.53;;;33.83;;
40599;SDS011;26309;50.924;4.754;2024-02-28T07:51:44;79.57;;;36.77;;
40599;SDS011;26309;50.924;4.754;2024-02-28T07:54:10;65.40;;;34.30;;
40599;SDS011;26309;50.924;4.754;2024-02-28T07:56:37;72.43;;;35.80;;
40599;SDS011;26309;50.924;4.754;2024-02-28T07:59:02;61.40;;;34.13;;
40599;SDS011;26309;50.924;4.754;2024-02-28T08:01:28;70.77;;;35.53;;
40599;SDS011;26309;50.924;4.754;2024-02-28T08:03:54;73.93;;;36.20;;
40599;SDS011;26309;50.924;4.754;2024-02-28T08:06:20;78.57;;;33.20;;
40599;SDS011;26309;50.924;4.754;2024-02-28T08:08:46;67.37;;;34.20;;
40599;SDS011;26309;50.924;4.754;2024-02-28T08:11:12;64.37;;;33.03;;
40599;SDS011;26309;50.924;4.754;2024-02-28T08:13:38;66.03;;;33.90;;
40599;SDS011;26309;50.924;4.754;2024-02-28T08:16:04;59.40;;;31.93;;
40599;SDS011;26309;50.924;4.754;2024-02-28T08:18:31;60.43;;;32.73;;
40599;SDS011;26309;50.924;4.754;2024-02-28T08:20:59;56.53;;;30.13;;
40599;SDS011;26309;50.924;4.754;2024-02-28T08:23:27;58.80;;;30.97;;
40599;SDS011;26309;50.924;4.754;2024-02-28T08:25:52;53.30;;;29.60;;
40599;SDS011;26309;50.924;4.754;2024-02-28T08:28:19;60.03;;;31.47;;
40599;SDS011;26309;50.924;4.754;2024-02-28T08:30:45;52.60;;;29.83;;
40599;SDS011;26309;50.924;4.754;2024-02-28T08:33:11;58.03;;;30.63;;
40599;SDS011;26309;50.924;4.754;2024-02-28T08:35:36;57.73;;;31.67;;
40599;SDS011;26309;50.924;4.754;2024-02-28T08:38:02;57.33;;;30.07;;
40599;SDS011;26309;50.924;4.754;2024-02-28T08:40:28;56.00;;;29.10;;
40599;SDS011;26309;50.924;4.754;2024-02-28T08:42:55;54.90;;;29.10;;
40599;SDS011;26309;50.924;4.754;2024-02-28T08:45:24;52.77;;;29.00;;
40599;SDS011;26309;50.924;4.754;2024-02-28T08:47:51;52.83;;;29.33;;
40599;SDS011;26309;50.924;4.754;2024-02-28T08:50:18;48.13;;;26.20;;
40599;SDS011;26309;50.924;4.754;2024-02-28T08:52:43;48.00;;;26.43;;
40599;SDS011;26309;50.924;4.754;2024-02-28T08:55:09;46.77;;;25.87;;
40599;SDS011;26309;50.924;4.754;2024-02-28T08:57:35;42.47;;;25.63;;
40599;SDS011;26309;50.924;4.754;2024-02-28T09:00:01;38.43;;;24.00;;
40599;SDS011;26309;50.924;4.754;2024-02-28T09:02:26;38.80;;;24.53;;
40599;SDS011;26309;50.924;4.754;2024-02-28T09:04:52;40.13;;;23.73;;
40599;SDS011;26309;50.924;4.754;2024-02-28T09:07:21;40.90;;;23.70;;
40599;SDS011;26309;50.924;4.754;2024-02-28T09:09:47;39.70;;;23.50;;
40599;SDS011;26309;50.924;4.754;2024-02-28T09:12:14;40.27;;;24.00;;
40599;SDS011;26309;50.924;4.754;2024-02-28T09:14:40;44.43;;;22.80;;
40599;SDS011;26309;50.924;4.754;2024-02-28T09:17:06;41.90;;;21.80;;
40599;SDS011;26309;50.924;4.754;2024-02-28T09:19:31;32.50;;;20.10;;
40599;SDS011;26309;50.924;4.754;2024-02-28T09:21:57;38.50;;;20.83;;
40599;SDS011;26309;50.924;4.754;2024-02-28T09:24:24;36.20;;;19.93;;
40599;SDS011;26309;50.924;4.754;2024-02-28T09:26:50;31.47;;;19.37;;
40599;SDS011;26309;50.924;4.754;2024-02-28T09:29:15;31.83;;;20.27;;
40599;SDS011;26309;50.924;4.754;2024-02-28T09:31:41;38.88;;;20.38;;
40599;SDS011;26309;50.924;4.754;2024-02-28T09:34:07;31.87;;;20.27;;
40599;SDS011;26309;50.924;4.754;2024-02-28T09:36:44;35.25;;;18.60;;
40599;SDS011;26309;50.924;4.754;2024-02-28T09:39:13;31.30;;;18.05;;
40599;SDS011;26309;50.924;4.754;2024-02-28T09:41:42;27.37;;;18.27;;
40599;SDS011;26309;50.924;4.754;2024-02-28T09:44:08;29.90;;;19.03;;
40599;SDS011;26309;50.924;4.754;2024-02-28T09:46:34;27.57;;;18.43;;
40599;SDS011;26309;50.924;4.754;2024-02-28T09:49:04;32.80;;;18.67;;
40599;SDS011;26309;50.924;4.754;2024-02-28T09:51:34;32.77;;;18.97;;
40599;SDS011;26309;50.924;4.754;2024-02-28T09:54:01;31.40;;;19.13;;
40599;SDS011;26309;50.924;4.754;2024-02-28T09:56:28;28.90;;;18.67;;
40599;SDS011;26309;50.924;4.754;2024-02-28T09:58:55;37.88;;;19.55;;
40599;SDS011;26309;50.924;4.754;2024-02-28T10:01:21;32.53;;;19.03;;
40599;SDS011;26309;50.924;4.754;2024-02-28T10:03:48;32.20;;;18.50;;
40599;SDS011;26309;50.924;4.754;2024-02-28T10:06:17;31.20;;;18.33;;
40599;SDS011;26309;50.924;4.754;2024-02-28T10:08:43;32.10;;;17.73;;
40599;SDS011;26309;50.924;4.754;2024-02-28T10:11:17;30.20;;;17.35;;
40599;SDS011;26309;50.924;4.754;2024-02-28T10:13:49;36.23;;;19.07;;
40599;SDS011;26309;50.924;4.754;2024-02-28T10:16:15;36.93;;;19.20;;
40599;SDS011;26309;50.924;4.754;2024-02-28T10:18:45;33.00;;;18.27;;
40599;SDS011;26309;50.924;4.754;2024-02-28T10:21:11;33.67;;;18.27;;
40599;SDS011;26309;50.924;4.754;2024-02-28T10:23:37;32.30;;;18.37;;
40599;SDS011;26309;50.924;4.754;2024-02-28T10:26:04;33.20;;;17.67;;
40599;SDS011;26309;50.924;4.754;2024-02-28T10:28:29;31.80;;;18.67;;
40599;SDS011;26309;50.924;4.754;2024-02-28T10:30:55;30.73;;;17.63;;
40599;SDS011;26309;50.924;4.754;2024-02-28T10:33:22;38.20;;;18.40;;
40599;SDS011;26309;50.924;4.754;2024-02-28T10:35:54;29.47;;;17.67;;
40599;SDS011;26309;50.924;4.754;2024-02-28T10:38:21;29.60;;;16.10;;
40599;SDS011;26309;50.924;4.754;2024-02-28T10:40:47;29.33;;;16.83;;
40599;SDS011;26309;50.924;4.754;2024-02-28T10:43:13;29.33;;;14.98;;
40599;SDS011;26309;50.924;4.754;2024-02-28T10:45:42;25.67;;;13.95;;
40599;SDS011;26309;50.924;4.754;2024-02-28T10:48:08;23.70;;;13.60;;
40599;SDS011;26309;50.924;4.754;2024-02-28T10:50:36;23.35;;;13.57;;
40599;SDS011;26309;50.924;4.754;2024-02-28T10:53:02;24.25;;;12.88;;
40599;SDS011;26309;50.924;4.754;2024-02-28T10:55:36;21.63;;;12.10;;
40599;SDS011;26309;50.924;4.754;2024-02-28T10:58:11;21.98;;;12.43;;
40599;SDS011;26309;50.924;4.754;2024-02-28T11:00:40;21.80;;;12.07;;
40599;SDS011;26309;50.924;4.754;2024-02-28T11:03:09;23.98;;;12.02;;
40599;SDS011;26309;50.924;4.754;2024-02-28T11:05:40;19.02;;;12.45;;
40599;SDS011;26309;50.924;4.754;2024-02-28T11:08:10;19.83;;;11.55;;
40599;SDS011;26309;50.924;4.754;2024-02-28T11:10:42;15.65;;;11.18;;
40599;SDS011;26309;50.924;4.754;2024-02-28T11:13:09;21.00;;;11.23;;
40599;SDS011;26309;50.924;4.754;2024-02-28T11:15:46;17.38;;;10.88;;
40599;SDS011;26309;50.924;4.754;2024-02-28T11:18:11;17.98;;;10.80;;
40599;SDS011;26309;50.924;4.754;2024-02-28T11:20:38;16.23;;;9.85;;
40599;SDS011;26309;50.924;4.754;2024-02-28T11:23:05;15.05;;;10.52;;
40599;SDS011;26309;50.924;4.754;2024-02-28T11:25:32;16.15;;;10.27;;
40599;SDS011;26309;50.924;4.754;2024-02-28T11:27:58;17.90;;;10.00;;
40599;SDS011;26309;50.924;4.754;2024-02-28T11:30:24;17.55;;;10.43;;
40599;SDS011;26309;50.924;4.754;2024-02-28T11:32:54;15.07;;;10.80;;
40599;SDS011;26309;50.924;4.754;2024-02-28T11:35:20;17.08;;;11.15;;
40599;SDS011;26309;50.924;4.754;2024-02-28T11:37:46;16.95;;;12.45;;
40599;SDS011;26309;50.924;4.754;2024-02-28T11:40:12;16.25;;;11.55;;
40599;SDS011;26309;50.924;4.754;2024-02-28T11:42:39;16.20;;;10.25;;
40599;SDS011;26309;50.924;4.754;2024-02-28T11:45:05;18.25;;;9.63;;
40599;SDS011;26309;50.924;4.754;2024-02-28T11:47:37;15.70;;;9.07;;
40599;SDS011;26309;50.924;4.754;2024-02-28T11:50:03;17.75;;;10.00;;
40599;SDS011;26309;50.924;4.754;2024-02-28T11:52:30;19.70;;;10.70;;
40599;SDS011;26309;50.924;4.754;2024-02-28T11:54:56;16.08;;;10.40;;
40599;SDS011;26309;50.924;4.754;2024-02-28T11:57:22;18.83;;;10.75;;
40599;SDS011;26309;50.924;4.754;2024-02-28T11:59:47;15.82;;;10.23;;
40599;SDS011;26309;50.924;4.754;2024-02-28T12:02:14;26.27;;;10.85;;
40599;SDS011;26309;50.924;4.754;2024-02-28T12:04:44;16.33;;;10.40;;
40599;SDS011;26309;50.924;4.754;2024-02-28T12:07:13;16.58;;;10.13;;
40599;SDS011;26309;50.924;4.754;2024-02-28T12:09:39;17.63;;;10.80;;
40599;SDS011;26309;50.924;4.754;2024-02-28T12:12:06;21.88;;;11.13;;
40599;SDS011;26309;50.924;4.754;2024-02-28T12:14:35;15.48;;;10.48;;
40599;SDS011;26309;50.924;4.754;2024-02-28T12:17:03;20.17;;;10.57;;
40599;SDS011;26309;50.924;4.754;2024-02-28T12:19:29;19.58;;;10.48;;
40599;SDS011;26309;50.924;4.754;2024-02-28T12:21:54;15.18;;;9.98;;
40599;SDS011;26309;50.924;4.754;2024-02-28T12:24:20;18.92;;;11.35;;
40599;SDS011;26309;50.924;4.754;2024-02-28T12:26:46;17.25;;;9.88;;
40599;SDS011;26309;50.924;4.754;2024-02-28T12:29:12;23.58;;;10.73;;
40599;SDS011;26309;50.924;4.754;2024-02-28T12:31:38;15.25;;;10.63;;
40599;SDS011;26309;50.924;4.754;2024-02-28T12:34:04;14.18;;;10.18;;
40599;SDS011;26309;50.924;4.754;2024-02-28T12:36:30;16.67;;;10.68;;
40599;SDS011;26309;50.924;4.754;2024-02-28T12:38:57;19.42;;;11.65;;
40599;SDS011;26309;50.924;4.754;2024-02-28T12:41:25;15.73;;;11.70;;
40599;SDS011;26309;50.924;4.754;2024-02-28T12:43:53;15.65;;;11.40;;
40599;SDS011;26309;50.924;4.754;2024-02-28T12:46:19;17.08;;;10.85;;
40599;SDS011;26309;50.924;4.754;2024-02-28T12:48:45;16.75;;;11.60;;
40599;SDS011;26309;50.924;4.754;2024-02-28T12:51:58;15.73;;;10.73;;
40599;SDS011;26309;50.924;4.754;2024-02-28T12:54:10;15.75;;;10.70;;
40599;SDS011;26309;50.924;4.754;2024-02-28T12:56:36;15.40;;;10.98;;
40599;SDS011;26309;50.924;4.754;2024-02-28T12:59:03;14.80;;;10.48;;
40599;SDS011;26309;50.924;4.754;2024-02-28T13:01:29;13.75;;;10.07;;
40599;SDS011;26309;50.924;4.754;2024-02-28T13:03:56;15.10;;;10.20;;
40599;SDS011;26309;50.924;4.754;2024-02-28T13:06:22;16.27;;;11.40;;
40599;SDS011;26309;50.924;4.754;2024-02-28T13:08:47;15.48;;;10.68;;
40599;SDS011;26309;50.924;4.754;2024-02-28T13:11:20;16.42;;;10.07;;
40599;SDS011;26309;50.924;4.754;2024-02-28T13:13:47;12.73;;;10.27;;
40599;SDS011;26309;50.924;4.754;2024-02-28T13:16:14;13.75;;;9.70;;
40599;SDS011;26309;50.924;4.754;2024-02-28T13:18:41;14.88;;;9.30;;
40599;SDS011;26309;50.924;4.754;2024-02-28T13:21:06;15.85;;;8.88;;
40599;SDS011;26309;50.924;4.754;2024-02-28T13:23:32;21.02;;;9.57;;
40599;SDS011;26309;50.924;4.754;2024-02-28T13:25:59;13.85;;;9.65;;
40599;SDS011;26309;50.924;4.754;2024-02-28T13:28:26;14.07;;;9.05;;
40599;SDS011;26309;50.924;4.754;2024-02-28T13:30:59;12.20;;;7.97;;
40599;SDS011;26309;50.924;4.754;2024-02-28T13:33:25;15.80;;;9.32;;
40599;SDS011;26309;50.924;4.754;2024-02-28T13:35:52;13.63;;;9.05;;
40599;SDS011;26309;50.924;4.754;2024-02-28T13:38:18;15.85;;;9.15;;
40599;SDS011;26309;50.924;4.754;2024-02-28T13:40:48;14.18;;;9.18;;
40599;SDS011;26309;50.924;4.754;2024-02-28T13:43:14;13.02;;;9.50;;
40599;SDS011;26309;50.924;4.754;2024-02-28T13:45:45;14.52;;;9.50;;
40599;SDS011;26309;50.924;4.754;2024-02-28T13:50:43;15.35;;;9.75;;
40599;SDS011;26309;50.924;4.754;2024-02-28T13:53:11;15.38;;;9.32;;
40599;SDS011;26309;50.924;4.754;2024-02-28T13:55:38;11.20;;;8.68;;
40599;SDS011;26309;50.924;4.754;2024-02-28T13:58:04;13.95;;;8.82;;
40599;SDS011;26309;50.924;4.754;2024-02-28T14:00:31;8.98;;;6.35;;
40599;SDS011;26309;50.924;4.754;2024-02-28T14:02:57;12.48;;;7.18;;
40599;SDS011;26309;50.924;4.754;2024-02-28T14:05:22;11.98;;;6.72;;
40599;SDS011;26309;50.924;4.754;2024-02-28T14:07:49;12.05;;;6.15;;
40599;SDS011;26309;50.924;4.754;2024-02-28T14:10:15;6.43;;;5.10;;
40599;SDS011;26309;50.924;4.754;2024-02-28T14:12:42;9.25;;;5.40;;
40599;SDS011;26309;50.924;4.754;2024-02-28T14:15:08;6.75;;;4.80;;
40599;SDS011;26309;50.924;4.754;2024-02-28T14:17:36;6.22;;;4.20;;
40599;SDS011;26309;50.924;4.754;2024-02-28T14:20:03;6.25;;;3.90;;
40599;SDS011;26309;50.924;4.754;2024-02-28T14:22:29;4.70;;;3.85;;